Time;durP1;ratioP1;P1;durP2;ratioP2;P2;SDS_P1;SDS_P2;PMS_P1;PMS_P2;Temp;Humidity;BMP_temperature;BMP_pressure;BME280_temperature;BME280_humidity;BME280_pressure;Samples;Min_cycle;Max_cycle;Signal;HPM_P1;HPM_P2
2021/01/09 05:00:41;;;;;;;32.13;21.30;;;2.50;99.90;;;;;;5847689;23;20519;-64
2021/01/09 05:03:08;;;;;;;34.53;21.53;;;2.50;99.90;;;;;;4976360;28;20454;-63
2021/01/09 05:05:34;;;;;;;30.90;20.83;;;2.50;99.90;;;;;;4976300;28;20458;-63
2021/01/09 05:08:01;;;;;;;31.03;21.53;;;2.50;99.90;;;;;;4976324;28;20506;-65
2021/01/09 05:10:33;;;;;;;26.77;20.90;;;2.50;99.90;;;;;;4976148;28;20459;-62
2021/01/09 05:12:59;;;;;;;30.70;19.83;;;2.60;99.90;;;;;;4976190;28;20443;-63
2021/01/09 05:15:33;;;;;;;27.83;21.33;;;2.50;99.90;;;;;;4976236;28;20466;-63
2021/01/09 05:18:00;;;;;;;29.30;21.10;;;2.60;99.90;;;;;;4976625;28;20463;-64
2021/01/09 05:20:27;;;;;;;27.87;20.50;;;2.50;99.90;;;;;;4976821;28;20455;-63
2021/01/09 05:22:53;;;;;;;27.90;19.70;;;2.60;99.90;;;;;;4976543;28;20512;-63
2021/01/09 05:25:24;;;;;;;28.30;20.80;;;2.60;99.90;;;;;;4975773;28;20465;-63
2021/01/09 05:27:51;;;;;;;25.43;20.57;;;2.60;99.90;;;;;;4976637;28;20779;-64
2021/01/09 05:30:18;;;;;;;28.67;19.53;;;2.60;99.90;;;;;;4976041;28;20458;-64
2021/01/09 05:32:45;;;;;;;27.73;20.23;;;2.70;99.90;;;;;;4976344;28;20451;-64
2021/01/09 05:35:13;;;;;;;29.00;22.00;;;2.60;99.90;;;;;;4975882;28;20455;-64
2021/01/09 05:37:40;;;;;;;30.20;21.90;;;2.60;99.90;;;;;;4976006;28;20870;-63
2021/01/09 05:40:09;;;;;;;31.10;21.80;;;2.70;99.90;;;;;;4975663;28;20466;-64
2021/01/09 05:42:35;;;;;;;29.90;19.80;;;2.70;99.90;;;;;;4975646;28;20537;-64
2021/01/09 05:45:03;;;;;;;28.27;19.97;;;2.70;99.90;;;;;;4976025;28;20458;-63
2021/01/09 05:47:30;;;;;;;25.57;19.60;;;2.70;99.90;;;;;;4976000;28;20969;-63
2021/01/09 05:49:59;;;;;;;31.73;23.10;;;2.60;99.90;;;;;;4975910;28;20509;-64
2021/01/09 05:52:28;;;;;;;26.93;20.63;;;2.70;99.90;;;;;;4975844;28;20481;-63
2021/01/09 05:54:58;;;;;;;31.00;22.33;;;2.70;99.90;;;;;;4975647;28;20514;-64
2021/01/09 05:57:28;;;;;;;26.97;20.17;;;2.70;99.90;;;;;;4975761;28;20459;-63
2021/01/09 05:59:56;;;;;;;36.30;21.10;;;2.70;99.90;;;;;;4975610;28;20450;-62
2021/01/09 06:02:24;;;;;;;31.07;22.57;;;2.70;99.90;;;;;;4975485;28;20537;-64
2021/01/09 06:04:55;;;;;;;29.43;21.77;;;2.70;99.90;;;;;;4975490;28;20466;-62
2021/01/09 06:07:27;;;;;;;33.83;22.77;;;2.70;99.90;;;;;;4975328;28;20977;-64
2021/01/09 06:10:00;;;;;;;31.80;23.00;;;2.70;99.90;;;;;;4976178;28;20446;-64
2021/01/09 06:12:27;;;;;;;31.80;21.90;;;2.70;99.90;;;;;;4976582;28;20486;-63
2021/01/09 06:14:54;;;;;;;26.93;20.07;;;2.80;99.90;;;;;;4975758;28;20462;-63
2021/01/09 06:17:22;;;;;;;35.43;23.10;;;2.70;99.90;;;;;;4975641;28;20860;-62
2021/01/09 06:19:48;;;;;;;34.90;23.07;;;2.60;99.90;;;;;;4975382;28;20561;-63
2021/01/09 06:22:15;;;;;;;31.60;22.50;;;2.60;99.90;;;;;;4976395;28;20479;-63
2021/01/09 06:24:43;;;;;;;36.50;23.50;;;2.60;99.90;;;;;;4982822;28;20465;-64
2021/01/09 06:27:14;;;;;;;34.20;21.57;;;2.60;99.90;;;;;;4985211;28;20486;-63
2021/01/09 06:29:48;;;;;;;32.00;22.53;;;2.60;99.90;;;;;;4985424;28;20443;-63
2021/01/09 06:32:19;;;;;;;31.27;23.10;;;2.60;99.90;;;;;;4984358;28;20482;-65
2021/01/09 06:34:48;;;;;;;37.13;22.73;;;2.50;99.90;;;;;;4987887;28;20908;-65
2021/01/09 06:37:21;;;;;;;38.40;24.90;;;2.40;99.90;;;;;;4984337;28;20462;-64
2021/01/09 06:39:49;;;;;;;33.53;22.67;;;2.40;99.90;;;;;;4977997;28;20447;-64
2021/01/09 06:42:17;;;;;;;35.67;23.50;;;2.50;99.90;;;;;;4976045;28;20525;-63
2021/01/09 06:44:49;;;;;;;34.67;23.63;;;2.50;99.90;;;;;;4975708;28;20459;-64
2021/01/09 06:47:25;;;;;;;37.93;24.57;;;2.50;99.90;;;;;;4975713;28;20446;-64
2021/01/09 06:49:51;;;;;;;34.27;22.10;;;2.50;99.90;;;;;;4975537;28;20442;-62
2021/01/09 06:52:17;;;;;;;34.23;22.83;;;2.50;99.90;;;;;;4975250;28;20565;-64
2021/01/09 06:54:45;;;;;;;34.23;23.03;;;2.50;99.90;;;;;;4975998;28;20458;-62
2021/01/09 06:57:16;;;;;;;32.00;22.93;;;2.50;99.90;;;;;;4977344;28;20459;-63
2021/01/09 06:59:44;;;;;;;35.17;24.20;;;2.50;99.90;;;;;;4975365;28;20445;-63
2021/01/09 07:02:19;;;;;;;39.40;24.73;;;2.40;99.90;;;;;;4974583;28;20533;-65
2021/01/09 07:05:05;;;;;;;35.03;23.63;;;2.40;99.90;;;;;;4977241;28;20549;-64
2021/01/09 07:07:33;;;;;;;37.77;25.73;;;2.40;99.90;;;;;;4981903;28;20439;-64
2021/01/09 07:10:18;;;;;;;36.40;23.50;;;2.40;99.90;;;;;;4983378;28;20454;-64
2021/01/09 07:12:55;;;;;;;35.63;24.50;;;2.40;99.90;;;;;;4981345;28;20913;-63
2021/01/09 07:15:22;;;;;;;37.30;24.40;;;2.40;99.90;;;;;;4978460;28;20533;-64
2021/01/09 07:17:52;;;;;;;32.90;22.93;;;2.40;99.90;;;;;;4978818;28;20493;-64
2021/01/09 07:20:21;;;;;;;38.40;24.17;;;2.50;99.90;;;;;;4978935;28;20460;-64
2021/01/09 07:22:51;;;;;;;39.23;24.47;;;2.50;99.90;;;;;;4979124;28;20550;-62
2021/01/09 07:25:27;;;;;;;38.37;26.60;;;2.60;99.90;;;;;;4978810;28;20533;-63
2021/01/09 07:27:56;;;;;;;38.67;25.27;;;2.60;99.90;;;;;;4979150;28;20446;-63
2021/01/09 07:30:24;;;;;;;36.57;25.83;;;2.60;99.90;;;;;;4979063;28;20461;-61
2021/01/09 07:32:51;;;;;;;36.63;26.30;;;2.70;99.90;;;;;;4978522;28;20553;-62
2021/01/09 07:35:23;;;;;;;38.87;25.87;;;2.60;99.90;;;;;;4978712;28;20466;-63
2021/01/09 07:37:52;;;;;;;47.77;26.80;;;2.50;99.90;;;;;;4978996;28;20474;-62
2021/01/09 07:40:20;;;;;;;40.70;26.60;;;2.50;99.90;;;;;;4978386;28;20465;-62
2021/01/09 07:42:47;;;;;;;43.57;27.57;;;2.40;99.90;;;;;;4978378;28;20968;-63
2021/01/09 07:45:17;;;;;;;51.67;29.60;;;2.40;99.90;;;;;;4978428;28;20465;-63
2021/01/09 07:47:46;;;;;;;41.37;27.50;;;2.40;99.90;;;;;;4978186;28;20454;-63
2021/01/09 07:50:15;;;;;;;42.20;25.70;;;2.40;99.90;;;;;;4978303;28;20545;-63
2021/01/09 07:52:42;;;;;;;40.37;27.27;;;2.50;99.90;;;;;;4978017;28;20938;-61
2021/01/09 07:55:10;;;;;;;40.20;27.90;;;2.50;99.90;;;;;;4978522;28;20455;-63
2021/01/09 07:57:39;;;;;;;43.33;27.50;;;2.50;99.90;;;;;;4978033;28;20454;-63
2021/01/09 08:00:08;;;;;;;45.93;27.70;;;2.60;99.90;;;;;;4977906;28;20455;-61
2021/01/09 08:02:36;;;;;;;46.17;29.10;;;2.50;99.90;;;;;;4976814;28;20493;-63
2021/01/09 08:05:09;;;;;;;50.33;28.77;;;2.50;99.90;;;;;;4977383;28;20822;-61
2021/01/09 08:07:36;;;;;;;44.77;28.77;;;2.40;99.90;;;;;;4976797;28;20910;-62
2021/01/09 08:10:24;;;;;;;47.50;29.70;;;2.40;99.90;;;;;;4976741;28;20461;-62
2021/01/09 08:12:56;;;;;;;44.20;28.10;;;2.30;99.90;;;;;;4976898;28;20443;-61
2021/01/09 08:15:22;;;;;;;41.17;28.40;;;2.40;99.90;;;;;;4976167;28;20462;-62
2021/01/09 08:17:49;;;;;;;44.87;28.90;;;2.50;99.90;;;;;;4976476;28;20487;-63
2021/01/09 08:20:18;;;;;;;39.43;27.17;;;2.60;99.90;;;;;;4976396;28;20455;-63
2021/01/09 08:22:52;;;;;;;42.57;28.10;;;2.70;99.90;;;;;;4976295;28;20474;-62
2021/01/09 08:25:19;;;;;;;43.93;27.50;;;2.60;99.90;;;;;;4976396;28;20458;-63
2021/01/09 08:27:47;;;;;;;40.80;27.63;;;2.70;99.90;;;;;;4976538;28;20454;-63
2021/01/09 08:30:16;;;;;;;43.47;27.73;;;2.80;99.90;;;;;;4976527;28;20516;-61
2021/01/09 08:32:43;;;;;;;41.23;26.27;;;2.80;99.90;;;;;;4976598;28;20443;-62
2021/01/09 08:35:12;;;;;;;37.37;24.83;;;2.60;99.90;;;;;;4980935;28;20438;-62
2021/01/09 08:37:38;;;;;;;42.87;27.00;;;2.60;99.90;;;;;;4993593;28;20447;-63
2021/01/09 08:40:15;;;;;;;42.40;26.70;;;2.60;99.90;;;;;;4978425;28;20954;-62
2021/01/09 08:43:02;;;;;;;34.90;23.83;;;2.70;99.90;;;;;;4977429;28;20442;-63
2021/01/09 08:45:43;;;;;;;31.77;21.30;;;2.60;99.90;;;;;;4982426;28;20459;-62
2021/01/09 08:48:12;;;;;;;29.97;22.27;;;2.50;99.90;;;;;;4985656;28;20454;-61
2021/01/09 08:51:01;;;;;;;29.20;20.40;;;2.60;99.90;;;;;;4986000;28;20474;-61
2021/01/09 08:53:31;;;;;;;32.63;22.07;;;2.50;99.90;;;;;;4979908;28;20455;-61
2021/01/09 08:56:01;;;;;;;31.90;23.90;;;2.50;99.90;;;;;;4976846;28;20454;-62
2021/01/09 08:58:31;;;;;;;31.43;21.43;;;2.50;99.90;;;;;;4976315;28;20509;-62
2021/01/09 09:00:58;;;;;;;36.00;23.53;;;2.50;99.90;;;;;;4957119;28;582610;-63
2021/01/09 09:03:24;;;;;;;31.47;20.47;;;2.40;99.90;;;;;;4977737;28;20541;-62
2021/01/09 09:05:51;;;;;;;31.80;20.70;;;2.30;99.90;;;;;;4977372;28;20469;-63
2021/01/09 09:08:20;;;;;;;29.90;19.93;;;2.50;99.90;;;;;;4977146;28;20455;-62
2021/01/09 09:10:47;;;;;;;25.47;19.20;;;2.90;99.90;;;;;;4977209;28;20482;-63
2021/01/09 09:13:18;;;;;;;29.80;21.77;;;3.30;99.90;;;;;;4977356;28;20482;-63
2021/01/09 09:15:44;;;;;;;27.80;19.90;;;3.40;99.90;;;;;;4976868;28;20465;-61
2021/01/09 09:18:11;;;;;;;30.77;21.43;;;3.50;99.90;;;;;;4978088;28;20478;-62
2021/01/09 09:20:39;;;;;;;24.93;19.87;;;3.50;99.90;;;;;;4979509;28;20474;-63
2021/01/09 09:23:20;;;;;;;27.17;19.30;;;3.60;99.90;;;;;;4979625;28;20863;-63
2021/01/09 09:25:46;;;;;;;28.17;20.73;;;3.70;99.90;;;;;;4979884;28;20457;-62
2021/01/09 09:28:13;;;;;;;26.13;19.40;;;3.90;99.90;;;;;;4979972;28;20454;-62
2021/01/09 09:30:39;;;;;;;24.50;20.10;;;4.20;99.90;;;;;;4984211;28;20474;-61
2021/01/09 09:33:13;;;;;;;25.33;20.17;;;4.40;99.90;;;;;;4988805;28;20459;-62
2021/01/09 09:35:40;;;;;;;27.57;20.73;;;4.60;99.90;;;;;;4989023;28;20430;-65
2021/01/09 09:38:10;;;;;;;28.30;20.07;;;4.60;99.90;;;;;;4983839;28;20489;-63
2021/01/09 09:40:38;;;;;;;28.20;21.33;;;4.60;99.90;;;;;;4981182;28;20478;-62
2021/01/09 09:43:15;;;;;;;27.83;19.97;;;4.70;99.90;;;;;;4980260;28;20442;-62
2021/01/09 09:45:55;;;;;;;24.63;18.30;;;4.80;99.90;;;;;;4979213;28;20451;-64
2021/01/09 09:48:28;;;;;;;23.03;18.90;;;4.70;99.90;;;;;;4978259;28;20434;-63
2021/01/09 09:51:07;;;;;;;25.47;18.60;;;4.90;99.90;;;;;;4978914;28;20489;-64
2021/01/09 09:53:36;;;;;;;26.07;19.40;;;4.70;99.90;;;;;;4978081;28;20443;-62
2021/01/09 09:56:13;;;;;;;28.10;21.20;;;4.60;99.90;;;;;;4977156;28;20458;-62
2021/01/09 09:58:40;;;;;;;27.93;21.37;;;4.60;99.90;;;;;;4978290;28;20985;-64
2021/01/09 10:01:20;;;;;;;25.87;19.73;;;4.60;99.90;;;;;;4978139;28;20482;-63
2021/01/09 10:03:47;;;;;;;28.77;20.23;;;4.60;99.90;;;;;;4986692;28;20458;-61
2021/01/09 10:06:13;;;;;;;26.50;19.73;;;4.70;99.90;;;;;;4991367;28;20446;-62
2021/01/09 10:08:41;;;;;;;25.03;20.77;;;4.90;99.90;;;;;;4991251;28;20455;-61
2021/01/09 10:11:07;;;;;;;21.00;17.20;;;5.20;99.90;;;;;;4980949;28;20479;-62
2021/01/09 10:13:35;;;;;;;23.83;18.37;;;5.30;99.90;;;;;;4978670;28;20522;-61
2021/01/09 10:16:01;;;;;;;20.60;16.70;;;5.70;99.90;;;;;;4977783;28;20848;-62
2021/01/09 10:18:29;;;;;;;25.60;17.40;;;6.20;99.90;;;;;;4978612;28;20479;-61
2021/01/09 10:20:56;;;;;;;17.23;14.37;;;6.30;99.90;;;;;;4977547;28;21008;-61
2021/01/09 10:23:22;;;;;;;18.13;14.57;;;6.70;99.90;;;;;;4977844;28;20483;-63
2021/01/09 10:25:49;;;;;;;19.20;15.63;;;6.80;99.90;;;;;;4977507;28;20950;-63
2021/01/09 10:28:15;;;;;;;17.73;15.30;;;6.80;99.90;;;;;;4978445;28;20454;-64
2021/01/09 10:30:43;;;;;;;18.87;15.53;;;6.30;99.90;;;;;;4978143;28;20890;-63
2021/01/09 10:33:09;;;;;;;16.23;14.30;;;6.10;99.90;;;;;;4977956;28;20525;-61
2021/01/09 10:35:36;;;;;;;16.07;12.00;;;5.70;99.90;;;;;;4976854;28;20553;-61
2021/01/09 10:38:02;;;;;;;14.27;12.17;;;5.50;99.90;;;;;;4976293;28;20467;-61
2021/01/09 10:40:28;;;;;;;15.67;13.50;;;5.20;99.90;;;;;;4976581;28;20438;-62
2021/01/09 10:42:55;;;;;;;13.90;11.80;;;4.80;99.90;;;;;;4976363;28;20455;-60
2021/01/09 10:45:21;;;;;;;16.70;12.20;;;4.50;99.90;;;;;;4975887;28;20459;-61
2021/01/09 10:47:48;;;;;;;14.63;11.77;;;4.20;99.90;;;;;;4975614;28;20941;-61
2021/01/09 10:50:14;;;;;;;14.13;11.47;;;4.10;99.90;;;;;;4976243;28;20462;-62
2021/01/09 10:52:40;;;;;;;14.43;11.40;;;3.80;99.90;;;;;;4976288;28;20455;-60
2021/01/09 10:55:07;;;;;;;14.40;10.70;;;3.80;99.90;;;;;;4976435;28;20466;-61
2021/01/09 10:57:33;;;;;;;15.13;12.20;;;4.00;99.90;;;;;;4975608;28;20512;-60
2021/01/09 10:59:59;;;;;;;15.80;12.43;;;3.80;99.90;;;;;;4975588;28;20486;-60
2021/01/09 11:02:26;;;;;;;14.83;11.50;;;3.80;99.90;;;;;;4975117;28;21000;-61
2021/01/09 11:04:53;;;;;;;19.40;13.03;;;3.70;99.90;;;;;;4975541;28;20439;-62
2021/01/09 11:07:19;;;;;;;16.40;12.17;;;3.70;99.90;;;;;;4976443;28;20490;-62
2021/01/09 11:09:45;;;;;;;16.77;12.77;;;3.80;99.90;;;;;;4975750;28;20454;-62
2021/01/09 11:12:11;;;;;;;15.17;11.93;;;3.60;99.90;;;;;;4975147;28;20993;-61
2021/01/09 11:14:37;;;;;;;16.83;12.43;;;3.60;99.90;;;;;;4975494;28;20459;-62
2021/01/09 11:17:04;;;;;;;15.10;12.70;;;3.70;99.90;;;;;;4975628;28;20482;-61
2021/01/09 11:19:30;;;;;;;15.10;12.03;;;3.80;99.90;;;;;;4975468;28;20474;-61
2021/01/09 11:22:01;;;;;;;16.93;12.63;;;3.80;99.90;;;;;;4976591;28;21005;-62
2021/01/09 11:24:31;;;;;;;15.83;12.27;;;4.00;99.90;;;;;;4982822;28;20443;-62
2021/01/09 11:27:01;;;;;;;14.37;9.67;;;3.90;99.90;;;;;;4994230;28;20465;-63
2021/01/09 11:29:27;;;;;;;9.77;8.77;;;3.80;99.90;;;;;;4980429;28;20462;-62
2021/01/09 11:31:58;;;;;;;11.53;9.40;;;3.70;99.90;;;;;;4976730;28;20549;-62
2021/01/09 11:34:24;;;;;;;14.97;11.07;;;3.70;99.90;;;;;;4975458;28;20478;-62
2021/01/09 11:36:51;;;;;;;13.00;10.10;;;3.60;99.90;;;;;;4975315;28;20467;-63
2021/01/09 11:39:18;;;;;;;14.23;12.17;;;3.70;99.90;;;;;;4975314;28;20482;-63
2021/01/09 11:41:44;;;;;;;13.47;11.50;;;3.80;99.90;;;;;;4975238;28;20481;-61
2021/01/09 11:44:10;;;;;;;15.50;11.00;;;3.90;99.90;;;;;;4975201;28;20529;-63
2021/01/09 11:46:36;;;;;;;12.50;10.33;;;3.80;99.90;;;;;;4975554;28;20461;-62
2021/01/09 11:49:03;;;;;;;15.13;10.43;;;3.90;99.90;;;;;;4974905;28;20460;-62
2021/01/09 11:51:29;;;;;;;12.77;10.67;;;4.50;99.90;;;;;;4977560;28;20529;-62
2021/01/09 11:53:55;;;;;;;13.60;10.80;;;4.50;99.90;;;;;;4979350;28;20458;-62
2021/01/09 11:56:23;;;;;;;14.10;10.43;;;4.60;99.90;;;;;;4978647;28;20454;-62
2021/01/09 11:58:49;;;;;;;12.20;10.90;;;4.80;99.90;;;;;;4978751;28;20474;-62
2021/01/09 12:01:16;;;;;;;12.33;10.60;;;4.60;99.90;;;;;;4978089;28;20950;-62
2021/01/09 12:03:42;;;;;;;13.77;10.67;;;4.60;99.90;;;;;;4978896;28;20458;-62
2021/01/09 12:06:08;;;;;;;12.40;11.10;;;4.70;99.90;;;;;;4978453;28;20451;-62
2021/01/09 12:08:34;;;;;;;14.00;10.83;;;4.80;99.90;;;;;;4978757;28;20505;-61
2021/01/09 12:11:00;;;;;;;12.53;11.10;;;4.50;99.90;;;;;;4978497;28;20475;-62
2021/01/09 12:13:27;;;;;;;16.57;11.93;;;4.50;99.90;;;;;;4978695;28;21016;-62
2021/01/09 12:15:53;;;;;;;13.20;11.37;;;4.40;99.90;;;;;;4978549;28;20465;-61
2021/01/09 12:18:21;;;;;;;14.30;11.80;;;4.40;99.90;;;;;;4978231;28;20478;-63
2021/01/09 12:20:48;;;;;;;13.90;11.37;;;4.20;99.90;;;;;;4978154;28;20978;-62
2021/01/09 12:23:14;;;;;;;12.90;11.17;;;4.30;99.90;;;;;;4978089;28;20482;-63
2021/01/09 12:25:40;;;;;;;14.80;11.70;;;4.40;99.90;;;;;;4977701;28;20482;-65
2021/01/09 12:28:07;;;;;;;13.60;10.77;;;4.40;99.90;;;;;;4977881;28;20509;-64
2021/01/09 12:30:34;;;;;;;12.90;10.80;;;4.40;99.90;;;;;;4977792;28;20461;-63
2021/01/09 12:33:00;;;;;;;16.27;12.27;;;4.30;99.90;;;;;;4977534;28;20461;-63
2021/01/09 12:35:26;;;;;;;13.87;11.67;;;4.30;99.90;;;;;;4977221;28;20465;-63
2021/01/09 12:37:54;;;;;;;13.40;11.30;;;4.30;99.90;;;;;;4979817;28;20462;-63
2021/01/09 12:40:20;;;;;;;12.73;11.20;;;4.30;99.90;;;;;;4984159;28;20873;-64
2021/01/09 12:42:46;;;;;;;13.00;11.13;;;4.40;99.90;;;;;;4983979;28;20446;-63
2021/01/09 12:45:13;;;;;;;15.23;11.30;;;4.40;99.90;;;;;;4984366;28;20451;-64
2021/01/09 12:47:40;;;;;;;13.40;10.63;;;4.30;99.90;;;;;;4978838;28;20451;-63
2021/01/09 12:50:07;;;;;;;12.57;10.80;;;4.20;99.90;;;;;;4977405;28;20455;-64
2021/01/09 12:52:34;;;;;;;13.20;11.80;;;4.20;99.90;;;;;;4977067;28;20537;-63
2021/01/09 12:55:00;;;;;;;14.07;10.70;;;4.10;99.90;;;;;;4977225;28;20458;-63
2021/01/09 12:57:26;;;;;;;13.80;10.60;;;4.00;99.90;;;;;;4977440;28;20513;-63
2021/01/09 12:59:52;;;;;;;13.13;10.50;;;3.90;99.90;;;;;;4978993;28;20970;-66
2021/01/09 13:02:18;;;;;;;13.10;10.37;;;3.90;99.90;;;;;;4976568;28;20495;-64
2021/01/09 13:04:45;;;;;;;13.50;12.07;;;3.80;99.90;;;;;;4977117;28;20454;-63
2021/01/09 13:07:11;;;;;;;13.07;11.07;;;3.90;99.90;;;;;;4977066;28;20459;-64
2021/01/09 13:09:38;;;;;;;12.57;10.30;;;3.80;99.90;;;;;;4976956;28;20439;-63
2021/01/09 13:12:06;;;;;;;13.37;10.70;;;3.70;99.90;;;;;;4976649;28;20475;-63
2021/01/09 13:14:32;;;;;;;11.60;10.40;;;3.70;99.90;;;;;;4976919;28;20455;-64
2021/01/09 13:16:59;;;;;;;13.77;10.37;;;3.80;99.90;;;;;;4976864;28;20534;-64
2021/01/09 13:19:26;;;;;;;11.93;10.23;;;3.80;99.90;;;;;;4976636;28;20466;-62
2021/01/09 13:21:54;;;;;;;12.33;9.80;;;3.80;99.90;;;;;;4977375;28;21040;-62
2021/01/09 13:24:21;;;;;;;12.03;10.17;;;3.80;99.90;;;;;;4977607;28;20443;-64
2021/01/09 13:26:49;;;;;;;10.80;8.50;;;3.60;99.90;;;;;;4977077;28;20450;-64
2021/01/09 13:29:15;;;;;;;9.60;8.60;;;3.60;99.90;;;;;;4976741;28;20439;-64
2021/01/09 13:31:42;;;;;;;9.37;8.47;;;3.70;99.90;;;;;;4976721;28;20494;-63
2021/01/09 13:34:09;;;;;;;11.30;9.30;;;3.50;99.90;;;;;;4976723;28;20466;-61
2021/01/09 13:36:38;;;;;;;10.97;9.10;;;3.60;99.90;;;;;;4976510;28;20458;-62
2021/01/09 13:39:06;;;;;;;11.70;9.47;;;3.50;99.90;;;;;;4984036;28;20848;-63
2021/01/09 13:41:33;;;;;;;11.00;9.90;;;3.50;99.90;;;;;;4978363;28;20807;-63
2021/01/09 13:43:59;;;;;;;10.30;9.30;;;3.60;99.90;;;;;;4976026;28;20459;-64
2021/01/09 13:46:28;;;;;;;10.00;8.90;;;3.70;99.90;;;;;;4975958;28;20462;-62
2021/01/09 13:48:54;;;;;;;13.23;11.43;;;3.70;99.90;;;;;;4977030;28;21021;-63
2021/01/09 13:51:21;;;;;;;10.13;9.13;;;3.70;99.90;;;;;;4976839;28;20813;-63
2021/01/09 13:53:47;;;;;;;20.33;11.10;;;3.70;99.90;;;;;;4975660;28;20439;-63
2021/01/09 13:56:14;;;;;;;10.10;8.97;;;3.70;99.90;;;;;;4975877;28;20465;-63
2021/01/09 13:58:40;;;;;;;13.90;11.03;;;3.70;99.90;;;;;;4975478;28;20482;-62
2021/01/09 14:01:07;;;;;;;13.30;10.73;;;3.70;99.90;;;;;;4975837;28;20494;-64
2021/01/09 14:03:33;;;;;;;15.43;11.30;;;3.70;99.90;;;;;;4978801;28;20458;-62
2021/01/09 14:05:59;;;;;;;13.00;10.77;;;3.70;99.90;;;;;;4975720;28;20949;-63
2021/01/09 14:08:25;;;;;;;13.50;11.13;;;3.60;99.90;;;;;;4975474;28;20481;-63
2021/01/09 14:10:52;;;;;;;11.20;9.67;;;3.80;99.90;;;;;;4975088;28;20478;-64
2021/01/09 14:13:19;;;;;;;12.70;10.20;;;3.60;99.90;;;;;;4975136;28;20559;-64
2021/01/09 14:15:45;;;;;;;15.60;10.67;;;3.70;99.90;;;;;;4975339;28;20455;-63
2021/01/09 14:18:11;;;;;;;12.90;10.90;;;3.70;99.90;;;;;;4975406;28;20796;-64
2021/01/09 14:20:37;;;;;;;11.93;10.70;;;3.50;99.90;;;;;;4975318;28;20988;-64
2021/01/09 14:23:03;;;;;;;14.13;10.50;;;3.50;99.90;;;;;;4975524;28;20463;-63
2021/01/09 14:25:30;;;;;;;12.23;10.97;;;3.40;99.90;;;;;;4975283;28;20513;-63
2021/01/09 14:27:57;;;;;;;12.23;10.93;;;3.30;99.90;;;;;;4975693;28;20481;-63
2021/01/09 14:30:24;;;;;;;11.30;10.10;;;3.40;99.90;;;;;;4975202;28;20482;-65
2021/01/09 14:32:51;;;;;;;13.77;10.80;;;3.50;99.90;;;;;;4978028;28;20481;-64
2021/01/09 14:35:17;;;;;;;12.47;10.83;;;3.40;99.90;;;;;;4977428;28;20465;-65
2021/01/09 14:37:43;;;;;;;14.70;11.77;;;3.50;99.90;;;;;;4975532;28;20462;-63
2021/01/09 14:40:11;;;;;;;13.60;11.13;;;3.40;99.90;;;;;;4975255;28;20463;-64
2021/01/09 14:42:37;;;;;;;12.20;10.90;;;3.40;99.90;;;;;;4985013;28;20474;-62
2021/01/09 14:45:04;;;;;;;13.53;10.70;;;3.40;99.90;;;;;;4996934;28;20455;-64
2021/01/09 14:47:31;;;;;;;15.60;11.90;;;3.30;99.90;;;;;;4996391;28;20461;-65
2021/01/09 14:49:57;;;;;;;15.07;11.70;;;3.20;99.90;;;;;;4998274;28;20458;-64
2021/01/09 14:52:23;;;;;;;13.43;10.80;;;3.20;99.90;;;;;;4983094;28;20490;-63
2021/01/09 14:54:50;;;;;;;13.73;11.63;;;3.20;99.90;;;;;;4977385;28;20509;-63
2021/01/09 14:57:16;;;;;;;14.00;10.53;;;3.10;99.90;;;;;;4976183;28;20454;-63
2021/01/09 14:59:42;;;;;;;14.70;10.33;;;3.10;99.90;;;;;;4975655;28;20478;-64
2021/01/09 15:02:09;;;;;;;12.67;10.87;;;3.10;99.90;;;;;;4974932;28;20533;-64
2021/01/09 15:04:36;;;;;;;12.83;10.53;;;3.00;99.90;;;;;;4975570;28;20486;-63
2021/01/09 15:07:02;;;;;;;12.60;10.40;;;2.80;99.90;;;;;;4974706;28;20482;-63
2021/01/09 15:09:28;;;;;;;15.40;11.37;;;2.80;99.90;;;;;;4974892;28;20478;-64
2021/01/09 15:11:54;;;;;;;13.60;11.10;;;2.60;99.90;;;;;;4974789;28;20483;-64
2021/01/09 15:14:20;;;;;;;11.77;9.53;;;2.60;99.90;;;;;;4974765;28;20454;-64
2021/01/09 15:16:47;;;;;;;13.43;11.27;;;2.60;99.90;;;;;;4975219;28;20459;-63
2021/01/09 15:19:14;;;;;;;15.33;10.87;;;2.40;99.90;;;;;;4974799;28;20514;-63
2021/01/09 15:21:43;;;;;;;15.23;12.10;;;2.40;99.90;;;;;;4974747;28;20478;-63
2021/01/09 15:24:10;;;;;;;12.87;10.80;;;2.30;99.90;;;;;;4974764;28;20463;-63
2021/01/09 15:26:36;;;;;;;16.33;12.33;;;2.20;99.90;;;;;;4976550;28;21024;-63
2021/01/09 15:29:04;;;;;;;15.47;11.83;;;2.20;99.90;;;;;;4978238;28;20942;-64
2021/01/09 15:31:30;;;;;;;15.07;11.03;;;2.10;99.90;;;;;;4978560;28;20478;-64
2021/01/09 15:33:56;;;;;;;13.63;11.20;;;2.00;99.90;;;;;;4978591;28;20462;-64
2021/01/09 15:36:30;;;;;;;13.97;11.50;;;2.00;99.90;;;;;;4978467;28;20458;-64
2021/01/09 15:38:57;;;;;;;15.73;10.63;;;1.90;99.90;;;;;;4978105;28;20478;-63
2021/01/09 15:41:24;;;;;;;15.53;12.00;;;1.90;99.90;;;;;;4979573;28;20486;-63
2021/01/09 15:43:50;;;;;;;17.80;11.67;;;1.90;99.90;;;;;;4979364;28;20477;-63
2021/01/09 15:46:16;;;;;;;14.33;12.83;;;1.90;99.90;;;;;;4978117;28;20450;-63
2021/01/09 15:48:42;;;;;;;15.00;11.83;;;1.90;99.90;;;;;;4978267;28;20458;-62
2021/01/09 15:51:09;;;;;;;16.83;11.83;;;1.70;99.90;;;;;;4977881;28;20527;-64
2021/01/09 15:53:36;;;;;;;18.33;12.60;;;1.70;99.90;;;;;;4978111;28;20552;-63
2021/01/09 15:56:04;;;;;;;22.40;14.93;;;1.70;99.90;;;;;;4978531;28;20462;-65
2021/01/09 15:58:31;;;;;;;20.47;15.33;;;1.60;99.90;;;;;;4977808;28;20483;-60
2021/01/09 16:00:58;;;;;;;23.52;15.57;;;1.60;99.90;;;;;;4977866;28;20468;-61
2021/01/09 16:03:25;;;;;;;21.40;14.93;;;1.60;99.90;;;;;;4977881;28;20203;-62
2021/01/09 16:05:51;;;;;;;17.50;13.73;;;1.60;99.90;;;;;;4979951;28;20459;-60
2021/01/09 16:08:17;;;;;;;20.60;14.20;;;1.50;99.90;;;;;;4977934;28;20533;-62
2021/01/09 16:10:43;;;;;;;17.67;14.03;;;1.70;99.90;;;;;;4977574;28;20846;-63
2021/01/09 16:13:10;;;;;;;18.07;12.53;;;1.80;99.90;;;;;;4977987;28;20516;-63
2021/01/09 16:15:37;;;;;;;20.07;12.93;;;1.90;99.90;;;;;;4977877;28;20461;-63
2021/01/09 16:18:03;;;;;;;31.40;17.07;;;2.00;99.90;;;;;;4977690;28;20969;-62
2021/01/09 16:20:29;;;;;;;17.80;13.30;;;2.10;99.90;;;;;;4977693;28;20845;-62
2021/01/09 16:22:56;;;;;;;15.33;12.00;;;2.10;99.90;;;;;;4978269;28;20458;-61
2021/01/09 16:25:22;;;;;;;16.97;12.80;;;2.10;99.90;;;;;;4978038;28;20809;-62
2021/01/09 16:27:48;;;;;;;21.93;15.90;;;2.10;99.90;;;;;;4978133;28;20459;-61
2021/01/09 16:30:16;;;;;;;16.70;12.03;;;2.10;99.90;;;;;;4978999;28;20450;-62
2021/01/09 16:32:42;;;;;;;16.83;12.90;;;2.00;99.90;;;;;;4977886;28;20486;-62
2021/01/09 16:35:09;;;;;;;15.53;11.73;;;2.00;99.90;;;;;;4979917;28;20952;-62
2021/01/09 16:37:36;;;;;;;19.47;14.23;;;2.00;99.90;;;;;;4977245;28;20458;-62
2021/01/09 16:40:03;;;;;;;17.83;13.33;;;1.90;99.90;;;;;;4978359;28;20482;-61
2021/01/09 16:42:29;;;;;;;23.23;15.17;;;1.90;99.90;;;;;;4978139;28;20501;-63
2021/01/09 16:44:56;;;;;;;20.03;13.67;;;1.90;99.90;;;;;;4977324;28;20512;-63
2021/01/09 16:47:23;;;;;;;19.87;14.80;;;1.90;99.90;;;;;;4977811;28;20477;-63
2021/01/09 16:49:50;;;;;;;24.30;16.20;;;1.90;99.90;;;;;;4978281;28;20478;-63
2021/01/09 16:52:16;;;;;;;26.80;16.90;;;1.80;99.90;;;;;;4979555;28;20467;-63
2021/01/09 16:54:43;;;;;;;23.80;16.27;;;1.80;99.90;;;;;;4979153;28;20815;-63
2021/01/09 16:57:09;;;;;;;17.37;13.87;;;1.70;99.90;;;;;;4979911;28;20489;-62
2021/01/09 16:59:35;;;;;;;17.17;12.80;;;1.60;99.90;;;;;;4979513;28;20483;-62
2021/01/09 17:02:02;;;;;;;17.13;13.37;;;1.60;99.90;;;;;;4979234;28;20486;-64
2021/01/09 17:04:29;;;;;;;14.70;12.13;;;1.60;99.90;;;;;;4978862;28;20968;-63
2021/01/09 17:06:56;;;;;;;19.00;13.83;;;1.50;99.90;;;;;;4978296;28;20465;-63
2021/01/09 17:09:22;;;;;;;16.93;12.70;;;1.50;99.90;;;;;;4979556;28;20973;-63
2021/01/09 17:11:50;;;;;;;16.70;12.50;;;1.40;99.90;;;;;;4978384;28;20997;-63
2021/01/09 17:14:17;;;;;;;18.70;13.93;;;1.40;99.90;;;;;;4977453;28;20545;-63
2021/01/09 17:16:43;;;;;;;17.13;13.90;;;1.30;99.90;;;;;;4976870;28;20458;-63
2021/01/09 17:19:10;;;;;;;17.87;14.70;;;1.20;99.90;;;;;;4979000;28;20478;-63
2021/01/09 17:21:39;;;;;;;17.80;14.60;;;1.20;99.90;;;;;;4977183;28;20488;-63
2021/01/09 17:24:06;;;;;;;18.27;14.33;;;1.20;99.90;;;;;;4976517;28;20492;-63
2021/01/09 17:26:37;;;;;;;23.47;15.70;;;1.10;99.90;;;;;;4976797;28;20458;-62
2021/01/09 17:29:04;;;;;;;17.20;14.30;;;1.10;99.90;;;;;;4981111;28;20458;-63
2021/01/09 17:31:36;;;;;;;23.67;16.40;;;1.10;99.90;;;;;;4976698;28;20474;-64
2021/01/09 17:34:03;;;;;;;24.03;17.53;;;1.00;99.90;;;;;;4976688;28;20506;-63
2021/01/09 17:36:29;;;;;;;22.90;17.60;;;1.00;99.90;;;;;;4978123;28;20454;-63
2021/01/09 17:38:56;;;;;;;24.27;17.80;;;1.00;99.90;;;;;;4985199;28;20507;-65
2021/01/09 17:41:23;;;;;;;22.07;17.37;;;1.00;99.90;;;;;;4995349;28;20482;-63